createdAt,value
2024-03-12T00:03:02.428Z,33.70
2024-03-12T00:05:49.009Z,35.70
2024-03-12T00:08:35.512Z,39.00
2024-03-12T00:11:26.532Z,40.00
2024-03-12T00:14:12.983Z,40.80
2024-03-12T00:17:01.223Z,36.80
2024-03-12T00:19:50.286Z,35.30
2024-03-12T00:22:40.971Z,38.60
2024-03-12T00:25:29.810Z,35.80
2024-03-12T00:28:19.403Z,39.50
2024-03-12T00:31:06.546Z,42.10
2024-03-12T00:33:53.241Z,41.80
2024-03-12T00:36:41.923Z,45.50
2024-03-12T00:39:28.665Z,40.60
2024-03-12T00:42:16.016Z,43.40
2024-03-12T00:45:06.519Z,37.70
2024-03-12T00:48:01.473Z,41.00
2024-03-12T00:50:49.765Z,40.80
2024-03-12T00:53:36.493Z,42.50
2024-03-12T00:56:27.085Z,39.40
2024-03-12T00:59:16.781Z,41.90
2024-03-12T01:02:06.019Z,36.50
2024-03-12T01:04:57.362Z,37.60
2024-03-12T01:10:32.804Z,38.10
2024-03-12T01:13:19.907Z,42.80
2024-03-12T01:16:09.979Z,40.00
2024-03-12T01:18:58.979Z,43.20
2024-03-12T01:21:47.147Z,38.40
2024-03-12T01:24:36.754Z,39.70
2024-03-12T01:27:24.443Z,41.90
2024-03-12T01:30:15.345Z,41.40
2024-03-12T01:33:10.277Z,38.60
2024-03-12T01:36:07.179Z,37.10
2024-03-12T01:38:56.682Z,42.10
2024-03-12T01:41:48.018Z,43.40
2024-03-12T01:44:36.303Z,41.30
2024-03-12T01:47:25.862Z,39.90
2024-03-12T01:50:15.578Z,42.30
2024-03-12T01:53:09.449Z,42.20
2024-03-12T01:55:56.555Z,42.60
2024-03-12T01:58:43.348Z,40.60
2024-03-12T02:01:30.023Z,41.60
2024-03-12T02:04:17.618Z,42.70
2024-03-12T02:07:05.306Z,38.50
2024-03-12T02:09:52.361Z,37.10
2024-03-12T02:12:50.158Z,38.60
2024-03-12T02:15:37.111Z,40.80
2024-03-12T02:18:23.582Z,41.30
2024-03-12T02:21:10.153Z,39.80
2024-03-12T02:23:59.023Z,38.10
2024-03-12T02:26:46.391Z,36.00
2024-03-12T02:29:33.298Z,37.60
2024-03-12T02:32:19.766Z,36.80
2024-03-12T02:35:13.023Z,40.00
2024-03-12T02:37:59.700Z,42.80
2024-03-12T02:40:47.345Z,34.20
2024-03-12T02:43:37.841Z,34.60
2024-03-12T02:46:24.852Z,37.60
2024-03-12T02:49:15.355Z,37.90
2024-03-12T02:52:03.100Z,38.00
2024-03-12T02:54:50.529Z,41.50
2024-03-12T02:57:37.351Z,38.00
2024-03-12T03:00:24.169Z,39.40
2024-03-12T03:03:10.750Z,38.50
2024-03-12T03:05:57.528Z,38.30
2024-03-12T03:08:46.264Z,35.70
2024-03-12T03:11:39.281Z,42.20
2024-03-12T03:14:26.184Z,40.10
2024-03-12T03:17:12.850Z,41.00
2024-03-12T03:19:59.086Z,40.10
2024-03-12T03:22:47.753Z,36.70
2024-03-12T03:25:34.675Z,37.60
2024-03-12T03:28:21.174Z,41.30
2024-03-12T03:31:07.858Z,27.50
2024-03-12T03:34:06.171Z,43.30
2024-03-12T03:36:56.303Z,37.00
2024-03-12T03:39:43.538Z,41.80
2024-03-12T03:42:30.460Z,45.90
2024-03-12T03:45:19.847Z,40.80
2024-03-12T03:48:06.918Z,42.40
2024-03-12T03:50:53.484Z,45.50
2024-03-12T03:53:41.402Z,49.60
2024-03-12T03:56:31.373Z,39.80
2024-03-12T03:59:17.888Z,48.70
2024-03-12T04:02:07.371Z,46.50
2024-03-12T04:04:54.367Z,47.20
2024-03-12T04:07:45.859Z,45.20
2024-03-12T04:10:33.601Z,50.00
2024-03-12T04:13:19.932Z,45.10
2024-03-12T04:16:07.511Z,44.00
2024-03-12T04:18:55.248Z,46.00
2024-03-12T04:21:42.626Z,47.30
2024-03-12T04:24:29.118Z,44.40
2024-03-12T04:27:16.303Z,47.50
2024-03-12T04:30:05.376Z,48.90
2024-03-12T04:32:51.874Z,45.40
2024-03-12T04:35:39.333Z,47.10
2024-03-12T04:38:27.379Z,51.40
2024-03-12T04:41:14.172Z,44.10
2024-03-12T04:44:00.917Z,50.30
2024-03-12T04:46:47.436Z,56.40
2024-03-12T04:49:33.947Z,47.50
2024-03-12T04:52:21.526Z,45.50
2024-03-12T04:55:08.665Z,42.00
2024-03-12T04:57:55.523Z,38.50
2024-03-12T05:00:43.609Z,45.70
2024-03-12T05:03:30.630Z,38.00
2024-03-12T05:06:18.375Z,51.90
2024-03-12T05:09:07.158Z,51.90
2024-03-12T05:11:54.652Z,51.10
2024-03-12T05:14:41.886Z,49.80
2024-03-12T05:17:28.161Z,48.10
2024-03-12T05:20:25.486Z,46.10
2024-03-12T05:23:14.484Z,45.40
2024-03-12T05:26:02.698Z,53.20
2024-03-12T05:28:49.872Z,56.70
2024-03-12T05:31:40.733Z,50.80
2024-03-12T05:34:39.235Z,54.50
2024-03-12T05:37:42.302Z,53.50
2024-03-12T05:40:55.263Z,55.40
2024-03-12T05:44:01.000Z,51.30
2024-03-12T05:47:10.688Z,44.90
2024-03-12T05:49:58.905Z,47.40
2024-03-12T05:55:42.940Z,56.40
2024-03-12T05:58:29.484Z,63.00
2024-03-12T06:01:17.077Z,55.30
2024-03-12T06:04:06.951Z,57.70
2024-03-12T06:06:53.759Z,57.00
2024-03-12T06:09:40.283Z,58.40
2024-03-12T06:12:29.168Z,51.10
2024-03-12T06:15:21.409Z,53.60
2024-03-12T06:18:08.598Z,61.90
2024-03-12T06:20:57.000Z,62.40
2024-03-12T06:23:45.522Z,48.40
2024-03-12T06:26:32.607Z,63.10
2024-03-12T06:29:19.503Z,52.20
2024-03-12T06:32:08.125Z,50.60
2024-03-12T06:34:54.934Z,53.60
2024-03-12T06:38:12.782Z,54.70
2024-03-12T06:40:59.153Z,50.20
2024-03-12T06:43:46.007Z,50.30
2024-03-12T06:46:33.594Z,68.50
2024-03-12T06:49:21.268Z,63.90
2024-03-12T06:52:08.306Z,58.40
2024-03-12T06:54:55.582Z,58.20
2024-03-12T06:57:53.709Z,62.40
2024-03-12T07:00:47.565Z,56.20
2024-03-12T07:03:35.780Z,46.80
2024-03-12T07:06:23.391Z,51.40
2024-03-12T07:09:14.702Z,60.50
2024-03-12T07:12:07.045Z,54.70
2024-03-12T07:14:58.539Z,62.20
2024-03-12T07:17:45.478Z,56.30
2024-03-12T07:20:36.259Z,63.60
2024-03-12T07:23:22.885Z,46.50
2024-03-12T07:26:09.869Z,54.80
2024-03-12T07:29:01.000Z,58.60
2024-03-12T07:31:47.598Z,52.60
2024-03-12T07:34:34.124Z,58.30
2024-03-12T07:37:20.429Z,50.40
2024-03-12T07:40:11.092Z,51.90
2024-03-12T07:42:57.636Z,54.50
2024-03-12T07:45:48.874Z,50.10
2024-03-12T07:48:38.277Z,39.40
2024-03-12T07:51:25.092Z,53.20
2024-03-12T07:54:14.792Z,32.80
2024-03-12T07:57:02.529Z,62.00
2024-03-12T07:59:49.487Z,39.20
2024-03-12T08:02:42.209Z,46.00
2024-03-12T08:05:32.177Z,51.60
2024-03-12T08:08:22.919Z,48.80
2024-03-12T08:11:09.703Z,45.20
2024-03-12T08:13:58.445Z,46.10
2024-03-12T08:16:45.085Z,48.90
2024-03-12T08:19:33.296Z,47.80
2024-03-12T08:22:20.993Z,51.40
2024-03-12T08:25:12.249Z,49.70
2024-03-12T08:27:59.609Z,31.90
2024-03-12T08:31:19.110Z,43.30
2024-03-12T08:34:17.825Z,51.70
2024-03-12T08:37:05.196Z,50.10
2024-03-12T08:39:52.652Z,31.20
2024-03-12T08:42:47.487Z,39.20
2024-03-12T08:45:41.845Z,34.60
2024-03-12T08:48:28.553Z,36.80
2024-03-12T08:51:15.283Z,44.00
2024-03-12T08:54:02.864Z,31.40
2024-03-12T08:56:50.020Z,46.00
2024-03-12T08:59:36.757Z,36.70
2024-03-12T09:02:23.186Z,46.40
2024-03-12T09:05:10.597Z,44.40
2024-03-12T09:08:00.374Z,37.70
2024-03-12T09:10:49.045Z,44.30
2024-03-12T09:13:35.409Z,40.90
2024-03-12T09:16:25.389Z,37.50
2024-03-12T09:19:15.903Z,33.70
2024-03-12T09:22:30.990Z,44.30
2024-03-12T09:25:20.935Z,36.40
2024-03-12T09:28:07.795Z,40.50
2024-03-12T09:30:55.849Z,45.40
2024-03-12T09:33:42.636Z,40.00
2024-03-12T09:36:29.657Z,27.90
2024-03-12T09:39:18.727Z,34.80
2024-03-12T09:42:08.299Z,39.90
2024-03-12T09:44:55.128Z,31.90
2024-03-12T09:47:44.157Z,29.70
2024-03-12T09:50:30.842Z,35.10
2024-03-12T09:53:20.526Z,33.30
2024-03-12T09:56:09.203Z,30.00
2024-03-12T09:59:01.411Z,35.20
2024-03-12T10:01:49.705Z,33.90
2024-03-12T10:04:36.302Z,33.80
2024-03-12T10:07:27.066Z,33.70
2024-03-12T10:10:13.819Z,36.70
2024-03-12T10:13:00.593Z,38.50
2024-03-12T10:16:05.472Z,22.10
2024-03-12T10:19:11.338Z,33.00
2024-03-12T10:26:32.096Z,29.20
2024-03-12T10:29:21.898Z,33.00
2024-03-12T10:32:26.322Z,40.50
2024-03-12T10:35:22.458Z,32.60
2024-03-12T10:38:13.077Z,42.20
2024-03-12T10:41:17.065Z,42.60
2024-03-12T10:47:00.407Z,31.10
2024-03-12T10:49:51.018Z,33.70
2024-03-12T10:52:38.080Z,35.00
2024-03-12T10:56:16.174Z,44.20
2024-03-12T10:59:04.283Z,43.90
2024-03-12T11:01:52.189Z,31.50
2024-03-12T11:04:40.340Z,36.90
2024-03-12T11:07:29.270Z,39.10
2024-03-12T11:10:16.248Z,32.30
2024-03-12T11:13:08.101Z,44.00
2024-03-12T11:15:59.548Z,23.80
2024-03-12T11:18:50.195Z,36.90
2024-03-12T11:21:38.344Z,43.00
2024-03-12T11:24:25.806Z,34.00
2024-03-12T11:27:20.823Z,41.50
2024-03-12T11:30:20.702Z,44.10
2024-03-12T11:33:38.623Z,33.80
2024-03-12T11:36:25.523Z,40.10
2024-03-12T11:39:30.738Z,42.40
2024-03-12T11:42:18.145Z,35.20
2024-03-12T11:45:08.121Z,38.40
2024-03-12T11:47:56.707Z,31.70
2024-03-12T11:50:44.558Z,41.40
2024-03-12T11:53:39.609Z,48.50
2024-03-12T11:56:28.931Z,53.10
2024-03-12T11:59:26.024Z,41.30
2024-03-12T12:02:13.585Z,54.10
2024-03-12T12:05:58.162Z,52.90
2024-03-12T12:08:53.107Z,54.50
2024-03-12T12:11:45.367Z,48.60
2024-03-12T12:14:39.171Z,53.50
2024-03-12T12:17:26.000Z,51.80
2024-03-12T12:20:16.479Z,54.50
2024-03-12T12:23:06.184Z,50.90
2024-03-12T12:25:57.307Z,43.60
2024-03-12T12:28:45.118Z,66.00
2024-03-12T12:31:37.991Z,40.60
2024-03-12T12:34:30.539Z,43.70
2024-03-12T12:37:18.291Z,44.90
2024-03-12T12:40:10.685Z,52.30
2024-03-12T12:42:59.433Z,49.60
2024-03-12T12:45:47.931Z,53.80
2024-03-12T12:48:40.062Z,56.80
2024-03-12T12:51:29.341Z,47.20
2024-03-12T12:54:44.069Z,44.00
2024-03-12T12:57:36.812Z,56.70
2024-03-12T13:00:25.541Z,45.00
2024-03-12T13:03:18.025Z,37.00
2024-03-12T13:06:17.109Z,49.00
2024-03-12T13:09:06.709Z,44.00
2024-03-12T13:11:55.282Z,50.90
2024-03-12T13:14:45.109Z,44.80
2024-03-12T13:17:34.754Z,52.10
2024-03-12T13:20:22.046Z,51.60
2024-03-12T13:23:10.163Z,38.20
2024-03-12T13:25:57.529Z,44.00
2024-03-12T13:28:50.015Z,56.30
2024-03-12T13:32:27.662Z,44.60
2024-03-12T13:35:14.591Z,43.20
2024-03-12T13:38:00.958Z,45.10
2024-03-12T13:40:47.497Z,43.50
2024-03-12T13:43:34.967Z,48.70
2024-03-12T13:46:23.980Z,56.20
2024-03-12T13:49:13.955Z,59.00
2024-03-12T13:52:01.889Z,52.90
2024-03-12T13:54:48.623Z,59.30
2024-03-12T13:57:35.755Z,49.00
2024-03-12T14:00:27.264Z,41.90
2024-03-12T14:03:15.274Z,53.40
2024-03-12T14:06:04.024Z,55.80
2024-03-12T14:08:51.461Z,33.10
2024-03-12T14:11:40.000Z,49.00
2024-03-12T14:14:27.348Z,33.90
2024-03-12T14:17:13.923Z,41.60
2024-03-12T14:20:00.710Z,35.40
2024-03-12T14:27:08.205Z,39.00
2024-03-12T14:29:54.771Z,45.70
2024-03-12T14:32:41.642Z,47.80
2024-03-12T14:35:31.361Z,51.70
2024-03-12T14:38:38.137Z,48.90
2024-03-12T14:41:25.615Z,54.30
2024-03-12T14:44:12.152Z,54.20
2024-03-12T14:47:01.017Z,51.50
2024-03-12T14:49:47.964Z,51.20
2024-03-12T14:52:34.843Z,45.40
2024-03-12T14:55:23.667Z,52.10
2024-03-12T14:58:11.717Z,51.70
2024-03-12T15:00:59.148Z,45.80
2024-03-12T15:04:45.090Z,47.40
2024-03-12T15:07:31.669Z,47.40
2024-03-12T15:10:20.597Z,53.70
2024-03-12T15:13:07.679Z,47.30
2024-03-12T15:15:56.043Z,51.00
2024-03-12T15:18:42.716Z,44.50
2024-03-12T15:21:29.313Z,46.40
2024-03-12T15:24:16.529Z,49.20
2024-03-12T15:27:03.342Z,54.50
2024-03-12T15:29:49.774Z,46.50
2024-03-12T15:32:41.966Z,48.10
2024-03-12T15:35:30.398Z,53.70
2024-03-12T15:38:16.812Z,48.30
2024-03-12T15:41:04.121Z,50.90
2024-03-12T15:43:51.838Z,50.50
2024-03-12T15:46:39.561Z,47.00
2024-03-12T15:49:26.479Z,46.30
2024-03-12T15:52:14.948Z,51.60
2024-03-12T15:55:03.575Z,51.00
2024-03-12T15:57:50.772Z,52.70
2024-03-12T16:00:38.909Z,51.20
2024-03-12T16:03:26.763Z,48.90
2024-03-12T16:06:16.174Z,49.20
2024-03-12T16:09:04.179Z,52.10
2024-03-12T16:11:50.951Z,46.70
2024-03-12T16:14:41.003Z,51.70
2024-03-12T16:17:31.574Z,51.00
2024-03-12T16:20:20.799Z,48.60
2024-03-12T16:23:07.691Z,50.30
2024-03-12T16:25:53.876Z,51.20
2024-03-12T16:28:40.594Z,53.70
2024-03-12T16:31:27.290Z,53.50
2024-03-12T16:34:13.725Z,47.60
2024-03-12T16:37:00.750Z,48.40
2024-03-12T16:39:47.542Z,52.70
2024-03-12T16:42:36.285Z,52.70
2024-03-12T16:45:24.374Z,52.40
2024-03-12T16:48:11.149Z,55.20
2024-03-12T16:50:58.382Z,49.20
2024-03-12T16:53:44.936Z,55.30
2024-03-12T16:56:34.155Z,45.20
2024-03-12T16:59:22.654Z,50.00
2024-03-12T17:02:12.176Z,52.40
2024-03-12T17:05:01.669Z,54.30
2024-03-12T17:07:56.895Z,51.40
2024-03-12T17:10:47.275Z,49.50
2024-03-12T17:13:36.448Z,55.00
2024-03-12T17:16:27.676Z,54.30
2024-03-12T17:22:11.858Z,50.20
2024-03-12T17:25:02.150Z,52.80
2024-03-12T17:27:53.869Z,56.20
2024-03-12T17:30:41.171Z,53.30
2024-03-12T17:33:28.142Z,59.40
2024-03-12T17:36:24.017Z,60.00
2024-03-12T17:42:02.454Z,60.00
2024-03-12T17:44:50.368Z,62.30
2024-03-12T17:47:37.893Z,58.90
2024-03-12T17:50:28.637Z,61.90
2024-03-12T17:56:11.873Z,56.60
2024-03-12T17:59:00.606Z,62.50
2024-03-12T18:01:47.146Z,61.80
2024-03-12T18:04:34.999Z,58.00
2024-03-12T18:07:26.466Z,59.90
2024-03-12T18:10:17.000Z,60.60
2024-03-12T18:13:06.071Z,57.90
2024-03-12T18:15:53.185Z,59.10
2024-03-12T18:18:40.101Z,62.40
2024-03-12T18:21:26.715Z,66.70
2024-03-12T18:24:14.963Z,61.50
2024-03-12T18:27:01.738Z,65.50
2024-03-12T18:29:50.568Z,63.80
2024-03-12T18:32:41.570Z,61.60
2024-03-12T18:35:28.313Z,59.00
2024-03-12T18:38:18.193Z,67.80
2024-03-12T18:41:04.785Z,59.20
2024-03-12T18:43:51.396Z,68.40
2024-03-12T18:46:39.806Z,63.50
2024-03-12T18:49:33.390Z,71.70
2024-03-12T18:52:20.460Z,77.90
2024-03-12T18:55:10.473Z,77.70
2024-03-12T18:57:58.527Z,85.00
2024-03-12T19:00:46.067Z,99.40
2024-03-12T19:03:50.481Z,92.00
2024-03-12T19:06:39.010Z,92.30
2024-03-12T19:09:28.327Z,87.20
2024-03-12T19:15:07.831Z,74.30
2024-03-12T19:17:57.836Z,75.50
2024-03-12T19:20:45.891Z,75.80
2024-03-12T19:23:33.964Z,67.80
2024-03-12T19:26:20.861Z,65.40
2024-03-12T19:29:10.272Z,77.40
2024-03-12T19:31:57.095Z,73.20
2024-03-12T19:34:48.077Z,75.40
2024-03-12T19:37:38.759Z,74.10
2024-03-12T19:40:27.675Z,74.00
2024-03-12T19:43:14.995Z,79.90
2024-03-12T19:46:02.071Z,80.60
2024-03-12T19:48:49.740Z,88.40
2024-03-12T19:51:38.138Z,83.50
2024-03-12T19:54:27.286Z,71.50
2024-03-12T19:57:13.988Z,77.20
2024-03-12T20:00:00.761Z,74.70
2024-03-12T20:02:48.648Z,73.80
2024-03-12T20:05:37.890Z,74.80
2024-03-12T20:08:27.626Z,71.20
2024-03-12T20:11:13.994Z,75.50
2024-03-12T20:14:01.942Z,76.90
2024-03-12T20:16:49.367Z,77.30
2024-03-12T20:19:40.100Z,80.80
2024-03-12T20:22:26.977Z,70.30
2024-03-12T20:25:18.332Z,74.60
2024-03-12T20:28:12.001Z,74.20
2024-03-12T20:31:02.905Z,86.10
2024-03-12T20:33:53.241Z,75.50
2024-03-12T20:36:47.820Z,76.40
2024-03-12T20:39:39.275Z,82.10
2024-03-12T20:42:30.959Z,77.40
2024-03-12T20:45:22.884Z,75.00
2024-03-12T20:48:11.688Z,77.20
2024-03-12T20:50:58.850Z,72.90
2024-03-12T20:53:45.565Z,76.40
2024-03-12T20:56:35.406Z,72.50
2024-03-12T20:59:21.666Z,72.90
2024-03-12T21:02:11.570Z,72.40
2024-03-12T21:05:02.712Z,79.90
2024-03-12T21:07:51.749Z,77.20
2024-03-12T21:10:44.723Z,68.20
2024-03-12T21:13:31.559Z,71.90
2024-03-12T21:16:20.280Z,81.50
2024-03-12T21:19:09.801Z,72.30
2024-03-12T21:21:57.283Z,63.80
2024-03-12T21:24:47.316Z,54.80
2024-03-12T21:27:36.399Z,57.50
2024-03-12T21:30:25.024Z,47.20
2024-03-12T21:33:13.777Z,47.10
2024-03-12T21:36:00.969Z,50.70
2024-03-12T21:38:50.259Z,48.60
2024-03-12T21:41:40.318Z,42.60
2024-03-12T21:44:29.286Z,45.40
2024-03-12T21:47:16.250Z,47.00
2024-03-12T21:50:04.724Z,44.00
2024-03-12T21:52:52.030Z,42.70
2024-03-12T21:55:40.688Z,45.30
2024-03-12T21:58:27.521Z,37.40
2024-03-12T22:01:17.986Z,38.80
2024-03-12T22:04:04.969Z,38.90
2024-03-12T22:06:51.865Z,36.90
2024-03-12T22:09:38.743Z,35.70
2024-03-12T22:12:25.540Z,35.40
2024-03-12T22:15:16.601Z,32.80
2024-03-12T22:18:03.567Z,36.50
2024-03-12T22:20:50.285Z,31.10
2024-03-12T22:23:40.458Z,34.90
2024-03-12T22:26:27.346Z,34.10
2024-03-12T22:29:16.309Z,36.00
2024-03-12T22:32:07.182Z,41.90
2024-03-12T22:34:53.706Z,61.90
2024-03-12T22:37:45.558Z,59.80
2024-03-12T22:40:32.610Z,54.30
2024-03-12T22:43:20.508Z,47.20
2024-03-12T22:46:08.102Z,38.40
2024-03-12T22:48:55.055Z,34.40
2024-03-12T22:51:42.087Z,34.10
2024-03-12T22:54:28.858Z,35.00
2024-03-12T22:57:18.742Z,26.80
2024-03-12T23:00:26.419Z,38.40
2024-03-12T23:03:14.388Z,39.80
2024-03-12T23:06:07.318Z,30.90
2024-03-12T23:08:54.524Z,30.70
2024-03-12T23:11:44.640Z,25.50
2024-03-12T23:14:31.424Z,28.30
2024-03-12T23:17:17.784Z,27.60
2024-03-12T23:20:08.141Z,28.20
2024-03-12T23:22:54.639Z,24.70
2024-03-12T23:25:43.121Z,21.00
2024-03-12T23:28:31.777Z,23.60
2024-03-12T23:31:21.570Z,25.30
2024-03-12T23:34:13.349Z,22.00
2024-03-12T23:37:02.455Z,21.10
2024-03-12T23:39:51.629Z,19.20
2024-03-12T23:42:41.416Z,19.40
2024-03-12T23:45:29.087Z,19.40
2024-03-12T23:48:16.606Z,19.20
2024-03-12T23:51:03.206Z,19.50
2024-03-12T23:53:50.134Z,16.90
2024-03-12T23:56:40.011Z,18.00
2024-03-12T23:59:26.817Z,16.20
